Latest Conditions
At L.F.Wade Int. Airport
Recorded at 11:55 am
Few Clouds
Temp.: 
24°C/76°F
Humidity: 
72%
Wind: 
W 20KT
or 23mph
UV Index: 
4
Island Observations
 
Observations
Thursday, October 28, 2021

Observations are in local time and taken at least once an hour, or upon the start and end of specified events such as showers and thunderstorms.

Time Sky / Weather Wind Speed/Gusts Temp. R.H. Pressure
     knots (mph)  °C (°F)  %  mb / "Hg
 11:55 Few Clouds  W 20/0 (23/0) 24(76) 72 1007 / 29.75
 10:55 Mostly Cloudy Showers W 16/0 (18/0) 23(74) 82 1008 / 29.76
 10:38 Mostly Cloudy Showers W 19/0 (22/0) 22(71) 89 1008 / 29.76
 10:34 Mostly Cloudy Showers W 22/0 (25/0) 21(70) 90 1008 / 29.76
 10:27 Mostly Cloudy Showers W 23/0 (26/0) 21(70) 90 1008 / 29.76
 10:21 Mostly Cloudy Showers W 28/0 (32/0) 22(71) 82 1008 / 29.76
 10:10 Mostly Cloudy Showers W 13/0 (15/0) 23(73) 78 1007 / 29.75
 10:03 Mostly Cloudy Showers WNW 18/28 (21/32) 22(72) 83 1008 / 29.76
 10:00 Mostly Cloudy Showers WNW 17/0 (20/0) 23(73) 78 1008 / 29.76
 09:55 Mostly Cloudy Showers W 19/0 (22/0) 23(74) 77 1007 / 29.75
 08:55 Mostly Cloudy  W 21/0 (24/0) 24(76) 67 1007 / 29.73
 07:55 Mostly Cloudy  W 20/0 (23/0) 24(75) 66 1006 / 29.70
 06:55 Partly Cloudy  W 21/0 (24/0) 24(74) 64 1005 / 29.69
 05:55 Partly Cloudy  W 20/0 (23/0) 24(74) 63 1005 / 29.69
 04:55 Partly Cloudy  W 22/0 (25/0) 24(75) 60 1005 / 29.68
 03:55 Mostly Cloudy  W 22/0 (25/0) 24(75) 60 1005 / 29.68
 02:55 Mostly Cloudy  W 22/0 (25/0) 24(75) 63 1005 / 29.68
 01:55 Mostly Cloudy  W 20/0 (23/0) 24(75) 67 1005 / 29.68
 00:55 Partly Cloudy  W 19/0 (22/0) 24(75) 68 1005 / 29.69
 23:55 Mostly Cloudy  W 17/0 (20/0) 24(75) 68 1006 / 29.70
 22:55 Partly Cloudy  W 17/0 (20/0) 24(75) 73 1006 / 29.70
 22:37 Mostly Cloudy Showers WNW 19/0 (22/0) 24(75) 76 1005 / 29.69
 22:25 Mostly Cloudy Showers WNW 16/0 (18/0) 24(75) 76 1005 / 29.69
 21:55 Partly Cloudy  W 18/0 (21/0) 24(76) 74 1005 / 29.69
 21:18 Mostly Cloudy Showers W 16/0 (18/0) 24(75) 81 1005 / 29.68
 21:09 Mostly Cloudy Showers W 17/28 (20/32) 23(74) 83 1005 / 29.68
 21:07 Mostly Cloudy Showers W 15/0 (17/0) 25(77) 71 1005 / 29.68
 20:55 Partly Cloudy Showers W 16/0 (18/0) 25(78) 71 1005 / 29.67
 19:55 Few Clouds  WSW 15/0 (17/0) 25(77) 72 1005 / 29.67
 18:55 Partly Cloudy  WSW 15/0 (17/0) 25(78) 75 1004 / 29.65
 18:32 Partly Cloudy Showers W 13/0 (15/0) 25(77) 73 1004 / 29.66
 18:22 Mostly Cloudy Showers W 16/0 (18/0) 25(78) 69 1004 / 29.65
 17:55 Partly Cloudy  WSW 17/0 (20/0) 26(78) 72 1004 / 29.65
 16:55 Partly Cloudy  WSW 15/0 (17/0) 26(78) 72 1004 / 29.64
 15:55 Mostly Cloudy Showers WSW 17/0 (20/0) 27(80) 64 1004 / 29.64
 14:55 Partly Cloudy  WSW 18/0 (21/0) 27(81) 68 1003 / 29.63
 13:55 Partly Cloudy  SW 15/0 (17/0) 27(80) 69 1004 / 29.65
 13:16 Mostly Cloudy Showers W 16/0 (18/0) 25(77) 73 1005 / 29.67
 12:55 Mostly Cloudy Showers WSW 16/0 (18/0) 26(79) 70 1005 / 29.67
 11:55 Mostly Cloudy  SW 14/0 (16/0) 25(76) 81 1005 / 29.69
 11:04 Mostly Cloudy  WSW 12/0 (14/0) 23(74) 83 1006 / 29.70
 10:55 Mostly Cloudy Rain WSW 16/0 (18/0) 22(72) 87 1006 / 29.71
 10:43 Overcast Rain WSW 15/0 (17/0) 23(73) 83 1006 / 29.71
 10:21 Overcast Showers W 25/36 (29/41) 22(71) 85 1006 / 29.70
 09:55 Overcast Showers WSW 15/0 (17/0) 24(75) 90 1006 / 29.70
 09:39 Overcast Showers WSW 16/0 (18/0) 24(75) 94 1005 / 29.69
 09:34 Overcast Showers SW 14/0 (16/0) 24(74) 94 1005 / 29.69
 09:07 Overcast Showers WSW 16/0 (18/0) 23(73) 95 1005 / 29.68
 09:01 Overcast Showers W 19/0 (22/0) 23(73) 95 1005 / 29.68
 08:55 Overcast Showers W 17/0 (20/0) 23(73) 93 1005 / 29.67
 08:29 Mostly Cloudy Showers W 11/0 (13/0) 25(76) 86 1004 / 29.66
 07:55 Mostly Cloudy Showers W 22/0 (25/0) 24(75) 84 1004 / 29.66
 07:42 Mostly Cloudy Showers W 22/0 (25/0) 24(75) 82 1004 / 29.66
 06:55 Mostly Cloudy  SW 22/0 (25/0) 26(79) 82 1004 / 29.64
 05:55 Mostly Cloudy  SW 19/0 (22/0) 26(78) 87 1003 / 29.62
 04:55 Few Clouds  SW 20/0 (23/0) 26(78) 85 1003 / 29.62
 03:55 Mostly Cloudy  SW 20/0 (23/0) 26(78) 83 1003 / 29.63
 02:55 Mostly Cloudy  SW 19/0 (22/0) 26(78) 87 1004 / 29.65
 01:55 Overcast  SW 17/0 (20/0) 26(78) 87 1004 / 29.65
 00:55 Overcast  SW 21/0 (24/0) 26(79) 79 1004 / 29.66
 00:08 Overcast  SW 24/34 (28/39) 26(79) 82 1004 / 29.66
 23:55 Overcast  SW 22/0 (25/0) 26(79) 86 1004 / 29.66
 23:46 Overcast  WSW 23/0 (26/0) 26(79) 86 1004 / 29.66
 23:32 Overcast Rain WSW 23/0 (26/0) 26(79) 86 1005 / 29.68
 22:55 Overcast  SW 20/0 (23/0) 26(79) 85 1005 / 29.68
 22:13 Overcast Rain SW 20/30 (23/35) 26(79) 85 1005 / 29.68
 21:55 Overcast  SW 16/0 (18/0) 26(79) 87 1005 / 29.68
 21:26 Overcast Showers W 17/31 (20/36) 26(79) 85 1005 / 29.68
 21:21 Overcast Showers W 20/0 (23/0) 26(79) 85 1004 / 29.66
 20:55 Overcast  SW 23/0 (26/0) 26(79) 86 1005 / 29.68
 20:01 Overcast Showers SW 21/31 (24/36) 26(79) 86 1006 / 29.70
 19:55 Overcast Showers SW 23/0 (26/0) 26(79) 87 1006 / 29.70
 19:42 Overcast Showers SSW 24/0 (28/0) 26(79) 87 1006 / 29.70
 18:55 Overcast  SSW 25/0 (29/0) 26(79) 86 1005 / 29.68
 17:55 Overcast Showers SW 24/0 (28/0) 26(79) 87 1006 / 29.72
 17:14 Overcast Mist SSW 23/0 (26/0) 26(78) 86 1005 / 29.68
 16:55 Overcast Mist SSW 24/0 (28/0) 26(78) 87 1006 / 29.72
 16:29 Overcast Showers SW 25/0 (29/0) 26(78) 87 1007 / 29.73
 16:11 Overcast Showers SW 26/0 (30/0) 25(78) 89 1007 / 29.74
 15:55 Overcast Showers SW 22/0 (25/0) 26(78) 86 1007 / 29.74
 14:55 Mostly Cloudy Showers SSW 23/0 (26/0) 25(77) 89 1007 / 29.75
 14:26 Overcast Thunderstorm SW 23/0 (26/0) 25(77) 89 1007 / 29.75
 14:17 Overcast Showers SW 25/0 (29/0) 25(77) 83 1007 / 29.75
 13:55 Overcast  SSW 25/0 (29/0) 26(78) 85 1008 / 29.77
 13:17 Overcast  SW 24/0 (28/0) 25(77) 86 1009 / 29.79
 12:55 Overcast  SSW 25/0 (29/0) 25(76) 88 1009 / 29.80
 12:18 Overcast Showers SW 26/0 (30/0) 25(77) 83 1009 / 29.81
 11:55 Overcast Showers SSW 25/0 (29/0) 25(76) 88 1010 / 29.82
 10:55 Overcast Showers SSW 18/0 (21/0) 24(74) 90 1011 / 29.85
 10:31 Overcast Showers SSW 18/31 (21/36) 23(73) 96 1012 / 29.87
 10:24 Overcast Showers SW 18/0 (21/0) 23(73) 96 1011 / 29.86
 10:06 Overcast Rain SW 21/33 (24/38) 24(74) 85 1011 / 29.86
 09:55 Overcast Rain SSW 17/0 (20/0) 24(75) 94 1011 / 29.86
 08:55 Overcast Rain SSW 21/0 (24/0) 25(76) 88 1010 / 29.84
 08:02 Overcast Rain S 20/30 (23/35) 25(77) 89 1010 / 29.83
 07:55 Overcast Rain S 19/0 (22/0) 25(76) 90 1010 / 29.84
 06:55 Overcast Rain S 19/0 (22/0) 25(76) 86 1011 / 29.86
 05:55 Overcast Rain S 18/28 (21/32) 25(76) 85 1012 / 29.88
 05:16 Overcast  SSW 19/0 (22/0) 24(75) 88 1012 / 29.89
 05:05 Overcast Rain S 20/0 (23/0) 24(75) 88 1012 / 29.89
Island AWOS